Time;durP1;ratioP1;P1;durP2;ratioP2;P2;SDS_P1;SDS_P2;PMS_P1;PMS_P2;Temp;Humidity;BMP_temperature;BMP_pressure;BME280_temperature;BME280_humidity;BME280_pressure;Samples;Min_cycle;Max_cycle;Signal;HPM_P1;HPM_P2
2021/05/15 00:02:13;;;;;;;2.65;0.90;;;;;;;10.70;73.08;99865.44;5069729;28;20033;-70
2021/05/15 00:04:38;;;;;;;1.00;0.70;;;;;;;10.63;72.99;99862.66;5089093;28;20560;-69
2021/05/15 00:07:04;;;;;;;1.42;1.00;;;;;;;10.60;73.60;99858.50;5081079;28;20036;-69
2021/05/15 00:09:29;;;;;;;1.58;0.95;;;;;;;10.61;73.26;99862.81;5065390;28;20055;-69
2021/05/15 00:11:54;;;;;;;2.38;0.70;;;;;;;10.57;73.56;99852.75;5079105;28;20143;-69
2021/05/15 00:14:20;;;;;;;1.45;0.80;;;;;;;10.54;73.46;99858.38;5071193;28;20068;-69
2021/05/15 00:16:45;;;;;;;2.10;1.02;;;;;;;10.53;73.35;99854.88;5071657;28;20086;-69
2021/05/15 00:19:11;;;;;;;2.00;1.10;;;;;;;10.51;74.10;99858.69;5071210;28;20129;-69
2021/05/15 00:21:36;;;;;;;1.42;0.95;;;;;;;10.50;73.89;99857.03;5088070;28;20452;-69
2021/05/15 00:24:02;;;;;;;1.85;1.02;;;;;;;10.45;74.47;99854.91;5082163;28;20427;-69
2021/05/15 00:26:28;;;;;;;2.13;1.10;;;;;;;10.35;75.58;99854.25;5070393;28;21352;-69
2021/05/15 00:28:53;;;;;;;1.65;1.10;;;;;;;10.21;76.90;99861.00;5089615;28;20066;-69
2021/05/15 00:31:19;;;;;;;2.30;1.10;;;;;;;10.21;75.90;99853.91;5087335;28;20052;-68
2021/05/15 00:33:45;;;;;;;2.17;1.23;;;;;;;10.25;75.32;99854.41;5071093;28;20063;-69
2021/05/15 00:36:10;;;;;;;2.55;1.45;;;;;;;10.25;75.37;99840.34;5067837;28;20037;-68
2021/05/15 00:38:35;;;;;;;2.88;1.88;;;;;;;10.28;75.90;99851.47;5067768;28;20051;-69
2021/05/15 00:41:01;;;;;;;2.70;1.50;;;;;;;10.31;75.74;99840.53;5071856;28;20032;-68
2021/05/15 00:43:28;;;;;;;3.03;1.50;;;;;;;10.29;75.59;99842.53;5074819;28;20067;-69
2021/05/15 00:45:53;;;;;;;2.22;1.52;;;;;;;10.25;76.01;99845.63;5074703;28;20028;-69
2021/05/15 00:48:18;;;;;;;2.30;1.40;;;;;;;10.29;75.80;99847.00;5085970;28;20054;-69
2021/05/15 00:50:44;;;;;;;2.40;1.50;;;;;;;10.37;75.86;99847.00;5076971;28;20033;-69
2021/05/15 00:53:09;;;;;;;2.65;1.40;;;;;;;10.40;75.36;99850.13;5078434;28;20024;-69
2021/05/15 00:55:36;;;;;;;2.60;1.52;;;;;;;10.47;75.55;99847.63;5088259;28;20093;-68
2021/05/15 00:58:02;;;;;;;2.15;1.23;;;;;;;10.45;76.14;99840.88;5069523;28;20139;-69
2021/05/15 01:00:28;;;;;;;2.45;1.27;;;;;;;10.48;75.81;99841.34;5068240;28;20127;-71
2021/05/15 01:02:53;;;;;;;2.65;1.60;;;;;;;10.47;76.66;99846.81;5088449;28;20036;-68
2021/05/15 01:05:19;;;;;;;2.30;1.40;;;;;;;10.46;77.05;99847.78;5088653;28;20051;-69
2021/05/15 01:07:46;;;;;;;3.17;1.50;;;;;;;10.48;76.80;99851.09;5084520;28;20512;-69
2021/05/15 01:10:12;;;;;;;2.28;1.35;;;;;;;10.48;77.42;99845.81;5069621;28;20032;-68
2021/05/15 01:12:53;;;;;;;2.63;1.50;;;;;;;10.48;77.12;99848.47;5076955;28;20029;-69
2021/05/15 01:15:19;;;;;;;;;;;;;;;10.51;76.74;99841.03;5078728;28;20047;-70
2021/05/15 01:17:56;;;;;;;3.05;1.50;;;;;;;10.43;77.30;99841.03;5071598;28;20392;-69
2021/05/15 01:20:23;;;;;;;2.90;1.70;;;;;;;10.43;77.53;99845.50;5076865;28;20394;-69
2021/05/15 01:22:49;;;;;;;2.95;1.77;;;;;;;10.43;77.19;99842.84;5080930;28;20040;-69
2021/05/15 01:25:15;;;;;;;3.10;1.73;;;;;;;10.39;76.77;99845.84;5068438;28;20447;-69
2021/05/15 01:27:40;;;;;;;2.67;1.75;;;;;;;10.35;77.20;99847.16;5068590;28;20090;-69
2021/05/15 01:30:07;;;;;;;2.78;1.80;;;;;;;10.22;78.63;99838.88;5082715;28;20031;-68
2021/05/15 01:32:33;;;;;;;3.70;2.15;;;;;;;10.28;77.83;99848.81;5073187;28;20062;-69
2021/05/15 01:34:58;;;;;;;2.90;2.00;;;;;;;10.24;78.67;99838.72;5092098;28;20107;-70
2021/05/15 01:37:23;;;;;;;3.90;2.08;;;;;;;10.24;78.27;99841.34;5086363;28;20036;-69
2021/05/15 01:39:49;;;;;;;4.00;2.30;;;;;;;10.25;78.78;99841.19;5072294;28;20090;-70
2021/05/15 01:42:14;;;;;;;5.07;2.70;;;;;;;10.20;79.21;99840.84;5070786;28;20044;-68
2021/05/15 01:44:39;;;;;;;5.57;2.63;;;;;;;10.21;78.52;99837.22;5071421;28;20025;-69
2021/05/15 01:47:06;;;;;;;5.68;2.90;;;;;;;10.16;79.93;99832.44;5072516;28;20104;-70
2021/05/15 01:49:31;;;;;;;6.00;2.78;;;;;;;10.20;79.43;99838.19;5053577;28;20032;-69
2021/05/15 01:51:57;;;;;;;4.45;2.65;;;;;;;10.19;79.68;99828.63;5053878;28;20162;-70
2021/05/15 01:54:22;;;;;;;3.30;2.50;;;;;;;10.19;80.08;99834.75;5071897;28;20393;-69
2021/05/15 01:56:47;;;;;;;3.05;2.17;;;;;;;10.19;79.32;99829.47;5071801;28;20040;-69
2021/05/15 01:59:12;;;;;;;4.90;2.53;;;;;;;10.17;79.37;99831.44;5072001;28;20028;-69
2021/05/15 02:01:38;;;;;;;3.63;1.95;;;;;;;10.13;79.67;99827.50;5085644;28;20114;-69
2021/05/15 02:04:03;;;;;;;3.08;2.05;;;;;;;10.16;79.28;99829.81;5075326;28;20109;-70
2021/05/15 02:06:29;;;;;;;3.40;2.35;;;;;;;10.08;79.46;99816.59;5075028;28;20028;-70
2021/05/15 02:08:54;;;;;;;2.75;2.08;;;;;;;10.07;79.33;99820.22;5091755;28;20287;-69
2021/05/15 02:11:20;;;;;;;2.88;2.20;;;;;;;10.04;79.38;99815.28;5091948;28;20028;-70
2021/05/15 02:13:47;;;;;;;3.35;2.10;;;;;;;10.00;79.52;99811.31;5082085;28;20503;-69
2021/05/15 02:16:12;;;;;;;3.03;2.20;;;;;;;9.98;79.22;99814.09;5071501;28;20446;-69
2021/05/15 02:18:38;;;;;;;2.30;1.60;;;;;;;9.92;79.58;99809.50;5070826;28;20113;-69
2021/05/15 02:21:04;;;;;;;2.47;1.40;;;;;;;9.87;79.95;99814.47;5071125;28;20029;-69
2021/05/15 02:23:29;;;;;;;3.38;1.85;;;;;;;9.87;79.19;99813.63;5071396;28;20029;-69
2021/05/15 02:25:54;;;;;;;2.67;1.70;;;;;;;9.89;79.15;99816.91;5082180;28;20028;-69
2021/05/15 02:28:20;;;;;;;2.88;1.60;;;;;;;9.85;79.37;99819.06;5072129;28;20093;-71
2021/05/15 02:30:46;;;;;;;2.95;1.65;;;;;;;9.87;79.03;99811.81;5082635;28;20028;-69
2021/05/15 02:33:12;;;;;;;4.18;1.80;;;;;;;9.85;79.04;99808.50;5070628;28;20493;-70
2021/05/15 02:35:37;;;;;;;2.28;1.40;;;;;;;9.84;79.08;99806.84;5079406;28;20067;-70
2021/05/15 02:38:05;;;;;;;2.85;1.50;;;;;;;9.93;79.01;99812.97;5090023;28;20371;-69
2021/05/15 02:40:30;;;;;;;1.98;1.40;;;;;;;9.96;79.09;99807.34;5071166;28;20118;-70
2021/05/15 02:42:55;;;;;;;2.88;1.38;;;;;;;10.07;78.53;99798.28;5087388;28;20060;-69
2021/05/15 02:45:22;;;;;;;3.33;1.65;;;;;;;10.03;78.75;99802.22;5091137;28;20039;-70
2021/05/15 02:47:50;;;;;;;2.92;1.90;;;;;;;9.99;79.25;99801.75;5091028;28;20032;-69
2021/05/15 02:50:16;;;;;;;2.88;1.40;;;;;;;10.05;78.85;99801.06;5090875;28;20051;-70
2021/05/15 02:52:43;;;;;;;2.55;1.63;;;;;;;10.12;78.72;99809.16;5071729;28;20035;-70
2021/05/15 02:55:11;;;;;;;1.90;1.38;;;;;;;10.14;78.85;99809.81;5066335;28;20039;-70
2021/05/15 02:57:37;;;;;;;2.30;1.50;;;;;;;10.18;78.29;99806.69;5047887;28;20063;-69
2021/05/15 03:00:08;;;;;;;2.90;1.35;;;;;;;10.24;78.15;99804.34;5069896;28;20053;-70
2021/05/15 03:02:34;;;;;;;2.70;1.75;;;;;;;10.27;78.06;99810.13;5086983;28;20544;-69
2021/05/15 03:05:00;;;;;;;3.08;1.60;;;;;;;10.30;78.12;99816.94;5079693;28;20083;-70
2021/05/15 03:07:25;;;;;;;2.97;1.58;;;;;;;10.31;77.73;99808.84;5090811;28;20042;-70
2021/05/15 03:09:51;;;;;;;3.70;1.75;;;;;;;10.36;77.51;99813.63;5090163;28;20099;-69
2021/05/15 03:12:16;;;;;;;1.88;1.48;;;;;;;10.34;77.89;99807.66;5072348;28;20661;-70
2021/05/15 03:14:42;;;;;;;2.25;1.40;;;;;;;10.29;78.21;99808.19;5076461;28;20429;-69
2021/05/15 03:17:09;;;;;;;2.58;1.33;;;;;;;10.30;77.96;99804.56;5091266;28;20382;-69
2021/05/15 03:19:34;;;;;;;1.67;1.23;;;;;;;10.26;78.30;99808.47;5073134;28;20033;-70
2021/05/15 03:21:59;;;;;;;3.10;1.40;;;;;;;10.28;78.10;99811.81;5089200;28;20081;-69
2021/05/15 03:24:24;;;;;;;1.90;1.40;;;;;;;10.24;78.23;99807.00;5070802;28;20050;-70
2021/05/15 03:26:50;;;;;;;3.65;1.40;;;;;;;10.26;78.12;99808.47;5053898;28;20029;-69
2021/05/15 03:29:15;;;;;;;2.58;1.30;;;;;;;10.28;77.88;99808.31;5079928;28;20435;-69
2021/05/15 03:31:41;;;;;;;2.90;1.38;;;;;;;10.25;77.65;99803.34;5079317;28;20393;-69
2021/05/15 03:34:08;;;;;;;2.88;1.40;;;;;;;10.29;77.45;99804.72;5076998;28;20036;-71
2021/05/15 03:36:33;;;;;;;3.17;1.42;;;;;;;10.32;77.38;99807.00;5078823;28;20032;-70
2021/05/15 03:38:59;;;;;;;2.40;1.70;;;;;;;10.27;77.53;99810.13;5086095;28;20055;-70
2021/05/15 03:41:24;;;;;;;3.50;1.42;;;;;;;10.32;77.10;99807.84;5090197;28;20089;-69
2021/05/15 03:43:49;;;;;;;2.15;1.30;;;;;;;10.29;77.45;99802.06;5076371;28;20058;-69
2021/05/15 03:46:14;;;;;;;2.25;1.30;;;;;;;10.23;77.65;99808.81;5069622;28;20040;-69
2021/05/15 03:48:40;;;;;;;2.33;1.35;;;;;;;10.28;77.55;99811.81;5069771;28;20029;-70
2021/05/15 03:51:05;;;;;;;2.38;1.30;;;;;;;10.25;77.71;99806.00;5052332;28;20048;-70
2021/05/15 03:53:30;;;;;;;3.30;1.33;;;;;;;10.30;77.42;99807.19;5069162;28;20035;-70
2021/05/15 03:55:56;;;;;;;2.92;1.50;;;;;;;10.31;77.37;99805.38;5070766;28;20033;-71
2021/05/15 03:58:21;;;;;;;1.95;1.35;;;;;;;10.30;77.33;99809.03;5088443;28;20415;-70
2021/05/15 04:00:47;;;;;;;2.40;1.40;;;;;;;10.30;77.07;99798.44;5088754;28;20024;-70
2021/05/15 04:03:12;;;;;;;2.35;1.30;;;;;;;10.33;76.64;99798.09;5089746;28;20035;-70
2021/05/15 04:05:37;;;;;;;2.47;1.40;;;;;;;10.33;77.11;99800.75;5087636;28;20032;-70
2021/05/15 04:08:03;;;;;;;1.67;1.13;;;;;;;10.33;77.07;99800.75;5085165;28;20384;-70
2021/05/15 04:10:29;;;;;;;2.22;1.25;;;;;;;10.35;76.51;99804.88;5089209;28;20095;-70
2021/05/15 04:15:42;;;;;;;2.25;1.30;;;;;;;10.38;76.29;99803.72;5087796;28;20063;-70
2021/05/15 04:18:09;;;;;;;2.05;1.30;;;;;;;10.46;76.13;99805.50;5086279;28;20020;-70
2021/05/15 04:20:35;;;;;;;2.13;1.23;;;;;;;10.48;76.13;99806.16;5087805;28;20032;-70
2021/05/15 04:23:02;;;;;;;2.67;1.30;;;;;;;10.53;75.56;99812.59;5089615;28;20497;-70
2021/05/15 04:25:27;;;;;;;2.05;1.25;;;;;;;10.51;75.74;99811.09;5085681;28;20069;-70
2021/05/15 04:27:54;;;;;;;1.83;1.20;;;;;;;10.51;75.66;99811.09;5072924;28;20397;-71
2021/05/15 04:30:19;;;;;;;2.47;1.35;;;;;;;10.48;75.81;99811.44;5065382;28;20032;-70
2021/05/15 04:32:44;;;;;;;2.55;1.20;;;;;;;10.54;75.62;99814.25;5064669;28;20078;-70
2021/05/15 04:35:10;;;;;;;2.90;1.20;;;;;;;10.62;75.34;99814.22;5047444;28;20408;-71
2021/05/15 04:37:35;;;;;;;1.73;1.02;;;;;;;10.60;75.64;99815.38;5070130;28;20404;-72
2021/05/15 04:40:00;;;;;;;1.92;1.30;;;;;;;10.68;75.13;99811.88;5080835;28;20113;-72
2021/05/15 04:42:26;;;;;;;1.50;1.00;;;;;;;10.65;75.61;99817.53;5077728;28;20044;-71
2021/05/15 04:44:51;;;;;;;2.63;1.05;;;;;;;10.72;75.39;99819.31;5066734;28;20523;-72
2021/05/15 04:47:16;;;;;;;1.50;0.95;;;;;;;10.75;75.56;99813.69;5085891;28;20046;-71
2021/05/15 04:49:42;;;;;;;2.10;1.10;;;;;;;10.75;75.36;99816.34;5069148;28;20039;-71
2021/05/15 04:52:07;;;;;;;2.15;1.27;;;;;;;10.79;75.36;99820.28;5074980;28;20032;-72
2021/05/15 04:54:32;;;;;;;1.75;1.10;;;;;;;10.83;74.78;99816.31;5080733;28;20612;-71
2021/05/15 04:56:57;;;;;;;1.75;1.30;;;;;;;10.81;75.32;99817.47;5066391;28;20455;-71
2021/05/15 04:59:23;;;;;;;1.90;1.00;;;;;;;10.85;75.14;99802.91;5065582;28;20044;-71
2021/05/15 05:01:48;;;;;;;1.55;0.95;;;;;;;10.80;75.11;99816.66;5066164;28;20025;-71
2021/05/15 05:04:13;;;;;;;1.42;0.95;;;;;;;10.82;75.04;99817.31;5072880;28;20043;-71
2021/05/15 05:06:39;;;;;;;2.05;1.13;;;;;;;10.84;74.73;99815.31;5090495;28;20279;-72
2021/05/15 05:09:04;;;;;;;2.08;1.23;;;;;;;10.89;74.81;99812.13;5091751;28;20024;-71
2021/05/15 05:11:29;;;;;;;2.17;1.20;;;;;;;10.82;74.76;99803.25;5077022;28;20028;-70
2021/05/15 05:13:55;;;;;;;1.58;1.05;;;;;;;10.81;74.88;99812.19;5068005;28;20029;-70
2021/05/15 05:16:20;;;;;;;2.60;1.08;;;;;;;10.82;74.48;99805.88;5072625;28;20036;-70
2021/05/15 05:18:45;;;;;;;2.50;1.20;;;;;;;10.81;74.89;99810.34;5081388;28;20127;-70
2021/05/15 05:21:11;;;;;;;1.75;1.15;;;;;;;10.89;74.48;99808.69;5078969;28;20044;-70
2021/05/15 05:23:36;;;;;;;2.20;1.20;;;;;;;10.89;74.43;99809.50;5076895;28;20043;-69
2021/05/15 05:26:01;;;;;;;4.03;1.40;;;;;;;10.92;74.63;99808.34;5092352;28;20036;-69
2021/05/15 05:28:34;;;;;;;2.15;1.30;;;;;;;10.90;74.49;99811.16;5079947;28;20067;-70
2021/05/15 05:31:00;;;;;;;1.75;1.02;;;;;;;10.96;74.42;99814.94;5068241;28;20484;-70
2021/05/15 05:33:26;;;;;;;2.67;1.10;;;;;;;11.08;74.32;99812.72;5085373;28;20036;-70
2021/05/15 05:35:51;;;;;;;2.90;1.20;;;;;;;11.15;74.19;99813.69;5087692;28;20571;-70
2021/05/15 05:38:16;;;;;;;2.17;1.20;;;;;;;11.22;73.75;99802.22;5090829;28;20028;-70
2021/05/15 05:40:42;;;;;;;3.45;1.17;;;;;;;11.26;73.99;99797.44;5072485;28;20036;-70
2021/05/15 05:43:07;;;;;;;1.90;1.17;;;;;;;11.38;73.52;99803.97;5058822;28;20102;-69
2021/05/15 05:45:32;;;;;;;1.95;1.20;;;;;;;11.44;73.15;99798.00;5061834;28;20021;-69
2021/05/15 05:47:58;;;;;;;3.40;1.20;;;;;;;11.60;72.99;99801.50;5085089;28;20075;-69
2021/05/15 05:50:23;;;;;;;1.25;0.98;;;;;;;11.75;72.63;99794.47;5074512;28;20055;-69
2021/05/15 05:52:48;;;;;;;1.52;1.00;;;;;;;11.85;72.11;99795.03;5070614;28;20036;-68
2021/05/15 05:55:14;;;;;;;2.50;1.10;;;;;;;12.04;71.25;99792.94;5090938;28;20408;-68
2021/05/15 05:57:39;;;;;;;1.73;1.17;;;;;;;12.12;71.05;99795.50;5092521;28;20391;-69
2021/05/15 06:00:06;;;;;;;2.75;1.23;;;;;;;12.25;70.14;99797.53;5072400;28;20051;-69
2021/05/15 06:02:31;;;;;;;2.15;1.25;;;;;;;12.36;68.95;99797.09;5071431;28;20455;-69
2021/05/15 06:04:56;;;;;;;1.83;1.23;;;;;;;12.39;69.15;99799.38;5072426;28;20036;-69
2021/05/15 06:07:22;;;;;;;2.38;1.25;;;;;;;12.41;68.70;99793.91;5071602;28;20307;-68
2021/05/15 06:09:47;;;;;;;3.67;1.30;;;;;;;12.59;69.30;99796.22;5071797;28;20032;-69
2021/05/15 06:12:14;;;;;;;1.60;1.10;;;;;;;12.75;68.11;99790.69;5090089;28;20047;-69
2021/05/15 06:14:40;;;;;;;1.92;1.10;;;;;;;12.85;68.05;99793.09;5059476;28;20040;-68
2021/05/15 06:17:05;;;;;;;1.70;1.08;;;;;;;13.02;67.52;99797.19;5089285;28;20469;-68
2021/05/15 06:19:30;;;;;;;2.53;1.30;;;;;;;13.48;66.60;99788.13;5087877;28;20032;-69
2021/05/15 06:21:57;;;;;;;3.13;1.20;;;;;;;13.59;64.46;99798.25;5092474;28;20032;-69
2021/05/15 06:24:22;;;;;;;2.72;1.30;;;;;;;13.27;65.27;99804.81;5091995;28;20040;-69
2021/05/15 06:26:48;;;;;;;2.38;1.30;;;;;;;12.95;65.52;99796.28;5072891;28;20111;-69
2021/05/15 06:29:13;;;;;;;1.75;1.23;;;;;;;12.74;65.98;99792.53;5071569;28;20547;-69
2021/05/15 06:31:38;;;;;;;2.75;1.33;;;;;;;12.66;66.73;99797.13;5068870;28;20032;-68
2021/05/15 06:34:03;;;;;;;2.40;1.25;;;;;;;12.57;66.79;99804.34;5064140;28;20032;-69
2021/05/15 06:36:29;;;;;;;2.40;1.10;;;;;;;12.48;67.67;99792.16;5087906;28;20035;-69
2021/05/15 06:38:54;;;;;;;3.17;1.15;;;;;;;12.49;67.84;99794.66;5082077;28;20058;-69
2021/05/15 06:41:19;;;;;;;1.90;1.10;;;;;;;12.48;67.71;99787.69;5074336;28;20044;-69
2021/05/15 06:43:45;;;;;;;1.92;1.10;;;;;;;12.47;67.59;99782.56;5072607;28;20036;-68
2021/05/15 06:46:10;;;;;;;3.03;1.00;;;;;;;12.48;67.33;99778.91;5087139;28;20450;-70
2021/05/15 06:48:35;;;;;;;2.17;0.90;;;;;;;12.52;67.73;99775.72;5091447;28;20055;-68
2021/05/15 06:51:01;;;;;;;2.88;1.15;;;;;;;12.56;67.45;99778.84;5089669;28;20259;-68
2021/05/15 06:53:26;;;;;;;1.40;0.90;;;;;;;12.60;67.41;99785.41;5088524;28;20033;-68
2021/05/15 06:55:51;;;;;;;2.08;1.00;;;;;;;12.70;67.33;99782.47;5068793;28;20083;-69
2021/05/15 06:58:16;;;;;;;3.45;1.05;;;;;;;12.87;66.85;99781.28;5078692;28;20086;-69
2021/05/15 07:00:42;;;;;;;1.50;0.90;;;;;;;12.96;66.38;99788.09;5070585;28;20296;-69
2021/05/15 07:03:07;;;;;;;1.95;0.98;;;;;;;12.93;66.91;99782.38;5070872;28;20025;-69
2021/05/15 07:05:34;;;;;;;1.42;0.88;;;;;;;12.98;66.99;99792.41;5069020;28;20029;-69
2021/05/15 07:07:59;;;;;;;3.10;0.85;;;;;;;12.86;66.77;99792.06;5068916;28;20037;-69
2021/05/15 07:10:25;;;;;;;1.92;0.93;;;;;;;12.75;67.31;99785.38;5049958;28;20040;-69
2021/05/15 07:12:50;;;;;;;1.98;1.08;;;;;;;12.69;67.76;99791.44;5064186;28;20144;-69
2021/05/15 07:15:15;;;;;;;1.92;0.90;;;;;;;12.69;67.44;99796.75;5065322;28;20051;-69
2021/05/15 07:17:41;;;;;;;2.80;1.60;;;;;;;12.61;67.85;99799.47;5054038;28;20463;-69
2021/05/15 07:20:07;;;;;;;2.78;1.00;;;;;;;12.43;68.82;99794.53;5069431;28;20029;-69
2021/05/15 07:22:32;;;;;;;1.35;1.00;;;;;;;12.39;69.15;99793.25;5068717;28;20071;-69
2021/05/15 07:24:59;;;;;;;2.92;1.20;;;;;;;12.19;70.58;99792.97;5067128;28;20052;-70
2021/05/15 07:27:25;;;;;;;2.13;1.10;;;;;;;12.11;71.07;99796.53;5069766;28;20124;-69
2021/05/15 07:29:53;;;;;;;1.60;1.00;;;;;;;12.21;71.50;99794.44;5066508;28;20434;-69
2021/05/15 07:32:20;;;;;;;3.03;1.00;;;;;;;12.16;71.77;99795.97;5083641;28;20408;-69
2021/05/15 07:34:46;;;;;;;2.92;1.10;;;;;;;12.03;73.86;99793.94;5080134;28;20074;-68
2021/05/15 07:37:13;;;;;;;1.75;1.20;;;;;;;11.73;75.24;99772.63;5070857;28;20117;-69
2021/05/15 07:39:38;;;;;;;1.80;1.15;;;;;;;11.47;76.35;99771.16;5068437;28;20050;-69
2021/05/15 07:42:04;;;;;;;2.67;1.55;;;;;;;11.33;77.29;99777.22;5084759;28;20035;-70
2021/05/15 07:44:30;;;;;;;1.52;0.90;;;;;;;11.23;78.03;99772.13;5069187;28;20032;-70
2021/05/15 07:46:55;;;;;;;2.67;1.00;;;;;;;11.18;78.44;99776.31;5069531;28;20051;-70
2021/05/15 07:49:20;;;;;;;1.48;1.02;;;;;;;11.22;78.10;99772.31;5070145;28;20517;-70
2021/05/15 07:51:46;;;;;;;1.85;0.85;;;;;;;11.24;78.09;99776.41;5072919;28;20035;-70
2021/05/15 07:54:11;;;;;;;3.10;1.00;;;;;;;11.34;77.72;99775.38;5071906;28;20075;-69
2021/05/15 07:56:37;;;;;;;1.30;0.85;;;;;;;11.36;78.73;99778.69;5069965;28;20040;-70
2021/05/15 07:59:02;;;;;;;2.55;0.90;;;;;;;11.55;77.47;99778.22;5077595;28;20090;-68
2021/05/15 08:01:28;;;;;;;2.03;1.08;;;;;;;11.52;77.88;99780.41;5078796;28;20471;-69
2021/05/15 08:03:53;;;;;;;2.95;1.00;;;;;;;11.53;77.57;99774.09;5070237;28;20043;-69
2021/05/15 08:06:18;;;;;;;1.52;1.10;;;;;;;11.56;77.35;99764.00;5070200;28;20107;-69
2021/05/15 08:08:44;;;;;;;1.58;1.10;;;;;;;11.66;77.14;99774.34;5074881;28;20272;-69
2021/05/15 08:11:11;;;;;;;2.83;1.30;;;;;;;11.77;76.99;99765.94;5080807;28;20146;-69
2021/05/15 08:13:36;;;;;;;4.20;1.48;;;;;;;11.85;77.36;99767.72;5074176;28;20043;-69
2021/05/15 08:16:02;;;;;;;2.10;1.33;;;;;;;12.00;76.62;99773.09;5074516;28;20396;-70
2021/05/15 08:18:27;;;;;;;2.72;1.10;;;;;;;12.07;76.50;99776.66;5069207;28;20032;-69
2021/05/15 08:20:53;;;;;;;1.95;0.80;;;;;;;12.22;76.49;99772.19;5083314;28;20109;-69
2021/05/15 08:23:18;;;;;;;1.98;1.00;;;;;;;12.60;75.81;99772.13;5070230;28;20244;-69
2021/05/15 08:25:43;;;;;;;1.73;0.90;;;;;;;12.81;73.19;99770.56;5080809;28;20040;-69
2021/05/15 08:28:12;;;;;;;1.20;0.80;;;;;;;12.80;73.41;99767.09;5069486;28;20508;-70
2021/05/15 08:30:38;;;;;;;2.33;1.08;;;;;;;12.82;73.79;99754.47;5066316;28;20029;-70
2021/05/15 08:33:05;;;;;;;2.22;1.05;;;;;;;12.96;72.59;99756.25;5076415;28;20028;-69
2021/05/15 08:35:31;;;;;;;3.03;1.00;;;;;;;13.16;71.14;99753.03;5088426;28;20051;-68
2021/05/15 08:37:56;;;;;;;1.33;0.80;;;;;;;13.23;70.83;99747.78;5089409;28;20028;-70
2021/05/15 08:40:24;;;;;;;1.25;0.90;;;;;;;13.37;68.79;99736.31;5088272;28;20047;-69
2021/05/15 08:42:53;;;;;;;1.98;1.00;;;;;;;14.08;67.97;99738.97;5089776;28;20559;-69
2021/05/15 08:45:18;;;;;;;2.33;1.20;;;;;;;14.96;65.13;99735.75;5084913;28;20126;-69
2021/05/15 08:47:44;;;;;;;1.58;1.10;;;;;;;15.87;63.57;99736.16;5062717;28;20115;-70
2021/05/15 08:50:16;;;;;;;2.97;1.10;;;;;;;16.26;61.41;99742.47;5049051;28;20177;-70
2021/05/15 08:52:43;;;;;;;;;;;;;;;15.82;61.96;99735.09;5064707;28;20033;-70
2021/05/15 08:55:14;;;;;;;1.65;0.98;;;;;;;15.53;63.26;99734.44;5062937;28;19916;-70
2021/05/15 08:57:40;;;;;;;1.30;0.90;;;;;;;15.37;63.16;99732.19;5059414;28;20070;-70
2021/05/15 09:00:11;;;;;;;2.78;1.20;;;;;;;15.06;62.32;99730.88;5046922;28;20033;-69
2021/05/15 09:02:37;;;;;;;2.57;1.10;;;;;;;14.90;63.48;99721.41;5070485;28;20093;-69
2021/05/15 09:05:04;;;;;;;1.90;1.10;;;;;;;15.08;64.43;99721.66;5082542;28;20284;-69
2021/05/15 09:07:30;;;;;;;2.30;1.20;;;;;;;15.45;61.02;99718.69;5078986;28;20501;-69
2021/05/15 09:09:55;;;;;;;2.13;1.10;;;;;;;15.70;60.83;99721.56;5071937;28;20042;-69
2021/05/15 09:12:20;;;;;;;3.13;1.02;;;;;;;15.42;60.90;99714.56;5070337;28;20044;-69
2021/05/15 09:14:56;;;;;;;1.70;1.00;;;;;;;15.46;61.52;99710.47;5085262;28;20028;-69
2021/05/15 09:17:22;;;;;;;1.88;0.90;;;;;;;15.59;61.06;99715.00;5089711;28;20090;-69
2021/05/15 09:19:52;;;;;;;2.03;1.00;;;;;;;15.57;60.52;99717.03;5090331;28;20028;-70
2021/05/15 09:22:24;;;;;;;1.55;1.02;;;;;;;15.57;60.66;99713.56;5074287;28;20451;-69
2021/05/15 09:24:49;;;;;;;1.73;0.90;;;;;;;15.27;61.72;99711.25;5088179;28;20506;-70
2021/05/15 09:27:14;;;;;;;1.88;1.10;;;;;;;15.18;61.48;99699.16;5075488;28;20033;-69
2021/05/15 09:29:50;;;;;;;2.17;1.10;;;;;;;14.73;62.81;99699.66;5056061;28;20051;-69
2021/05/15 09:32:29;;;;;;;1.42;0.80;;;;;;;14.75;62.27;99702.09;5059828;28;20036;-69
2021/05/15 09:34:54;;;;;;;1.20;0.88;;;;;;;14.57;63.84;99700.81;5086226;28;20032;-69
2021/05/15 09:37:30;;;;;;;1.92;0.90;;;;;;;14.60;63.27;99702.25;5085478;28;20448;-69
2021/05/15 09:39:55;;;;;;;1.52;0.93;;;;;;;14.80;62.66;99687.19;5088818;28;20563;-69
2021/05/15 09:42:21;;;;;;;2.45;1.13;;;;;;;15.06;62.41;99685.59;5088163;28;20123;-69
2021/05/15 09:44:46;;;;;;;1.77;0.90;;;;;;;15.07;62.63;99676.63;5088906;28;20602;-69
2021/05/15 09:47:11;;;;;;;1.35;1.00;;;;;;;15.25;62.00;99687.50;5072091;28;20051;-69
2021/05/15 09:49:37;;;;;;;1.95;0.85;;;;;;;15.15;60.96;99675.59;5088644;28;20028;-69
2021/05/15 09:52:05;;;;;;;1.60;0.85;;;;;;;15.22;61.11;99668.44;5089176;28;20469;-71
2021/05/15 09:54:32;;;;;;;1.58;0.80;;;;;;;15.09;61.32;99661.25;5091386;28;20078;-69
2021/05/15 09:57:08;;;;;;;1.85;1.00;;;;;;;15.00;61.46;99671.28;5086744;28;20028;-68
2021/05/15 09:59:36;;;;;;;2.55;1.10;;;;;;;15.16;60.97;99659.44;5084361;28;20055;-69
2021/05/15 10:02:04;;;;;;;1.70;0.80;;;;;;;15.82;59.48;99658.63;5092072;28;20032;-69
2021/05/15 10:04:29;;;;;;;1.65;0.93;;;;;;;16.48;58.99;99656.81;5091168;28;20036;-69
2021/05/15 10:06:56;;;;;;;1.48;0.80;;;;;;;16.99;56.30;99653.28;5090136;28;20385;-69
2021/05/15 10:09:32;;;;;;;1.42;0.80;;;;;;;17.02;55.18;99652.03;5088213;28;20175;-69
2021/05/15 10:11:59;;;;;;;1.15;0.73;;;;;;;17.31;55.59;99639.94;5084207;28;20123;-69
2021/05/15 10:14:25;;;;;;;2.15;0.80;;;;;;;17.38;54.00;99638.03;5070895;28;20045;-70
2021/05/15 10:16:51;;;;;;;1.52;0.80;;;;;;;17.23;54.29;99641.00;5066297;28;20025;-70
2021/05/15 10:19:17;;;;;;;1.90;0.90;;;;;;;17.22;55.40;99634.03;5071287;28;20512;-70
2021/05/15 10:21:43;;;;;;;1.27;0.80;;;;;;;17.11;53.83;99634.72;5072170;28;20029;-70
2021/05/15 10:24:23;;;;;;;1.45;0.80;;;;;;;16.92;55.12;99647.16;5071139;28;20036;-70
2021/05/15 10:27:00;;;;;;;2.08;1.02;;;;;;;16.51;53.78;99632.38;5059585;28;20039;-69
2021/05/15 10:29:53;;;;;;;2.08;1.13;;;;;;;16.50;54.07;99636.06;5051890;28;20489;-69
2021/05/15 10:32:20;;;;;;;2.50;0.90;;;;;;;16.08;55.02;99631.06;5068938;28;20040;-69
2021/05/15 10:34:48;;;;;;;2.97;1.10;;;;;;;15.97;55.40;99628.25;5091547;28;20051;-70
2021/05/15 10:37:21;;;;;;;2.38;0.90;;;;;;;15.97;56.12;99633.56;5088885;28;20484;-69
2021/05/15 10:39:48;;;;;;;2.15;1.10;;;;;;;15.92;56.06;99631.53;5078023;28;20072;-69
2021/05/15 10:42:14;;;;;;;2.00;0.90;;;;;;;15.59;57.37;99628.88;5077181;28;20028;-69
2021/05/15 10:44:45;;;;;;;1.55;0.70;;;;;;;15.38;58.37;99627.28;5072246;28;20584;-69
2021/05/15 10:47:10;;;;;;;1.48;0.80;;;;;;;15.13;58.79;99614.53;5085610;28;20090;-70
2021/05/15 10:49:36;;;;;;;1.17;0.82;;;;;;;15.08;60.72;99617.00;5085234;28;20024;-70
2021/05/15 10:52:13;;;;;;;2.40;0.80;;;;;;;14.89;62.13;99623.94;5087081;28;20131;-70
2021/05/15 10:54:41;;;;;;;2.50;0.73;;;;;;;14.61;62.99;99622.25;5078833;28;20025;-70
2021/05/15 10:57:21;;;;;;;1.85;0.70;;;;;;;14.02;65.68;99626.25;5078408;28;20028;-71
2021/05/15 10:59:56;;;;;;;1.17;0.60;;;;;;;13.73;66.40;99631.78;5084849;28;20024;-71
2021/05/15 11:02:21;;;;;;;1.63;0.70;;;;;;;13.59;68.62;99625.59;5090336;28;20340;-71
2021/05/15 11:04:50;;;;;;;0.63;0.60;;;;;;;13.34;67.29;99623.34;5091331;28;20064;-70
2021/05/15 11:07:19;;;;;;;0.70;0.50;;;;;;;13.26;67.72;99622.63;5078597;28;20505;-70
2021/05/15 11:09:55;;;;;;;1.38;0.50;;;;;;;13.30;69.83;99613.28;5085105;28;20039;-70
2021/05/15 11:12:22;;;;;;;1.30;0.70;;;;;;;13.37;69.50;99609.69;5067436;28;20115;-71
2021/05/15 11:14:49;;;;;;;0.80;0.63;;;;;;;13.46;69.90;99597.06;5052389;28;20035;-71
2021/05/15 11:17:23;;;;;;;1.10;0.80;;;;;;;13.87;70.30;99592.84;5070401;28;20028;-71
2021/05/15 11:19:56;;;;;;;0.85;0.60;;;;;;;14.17;68.77;99594.22;5070163;28;20036;-71
2021/05/15 11:22:36;;;;;;;1.52;0.70;;;;;;;14.41;72.08;99584.91;5068067;28;20039;-71
2021/05/15 11:25:06;;;;;;;1.15;0.73;;;;;;;14.56;72.70;99589.25;5051942;28;20052;-71
2021/05/15 11:27:31;;;;;;;1.10;0.70;;;;;;;14.53;69.22;99587.78;5070518;28;20396;-71
2021/05/15 11:30:09;;;;;;;1.10;0.68;;;;;;;14.47;68.21;99579.78;5069595;28;20031;-71
2021/05/15 11:32:34;;;;;;;1.33;0.90;;;;;;;14.58;68.40;99566.75;5082632;28;20059;-70
2021/05/15 11:35:03;;;;;;;2.38;0.90;;;;;;;14.76;66.55;99566.19;5090729;28;20070;-71